sensor_id;sensor_type;location;lat;lon;timestamp;temperature;humidity
51867;DHT22;52862;52.504;13.480;2023-02-07T00:01:53;-2.00;99.90
51867;DHT22;52862;52.504;13.480;2023-02-07T00:04:20;-2.40;99.90
51867;DHT22;52862;52.504;13.480;2023-02-07T00:06:47;-2.50;99.90
51867;DHT22;52862;52.504;13.480;2023-02-07T00:09:13;-2.60;99.90
51867;DHT22;52862;52.504;13.480;2023-02-07T00:11:42;-2.10;99.90
51867;DHT22;52862;52.504;13.480;2023-02-07T00:14:11;-2.30;99.90
51867;DHT22;52862;52.504;13.480;2023-02-07T00:19:05;-2.30;99.90
51867;DHT22;52862;52.504;13.480;2023-02-07T00:21:31;-1.90;99.90
51867;DHT22;52862;52.504;13.480;2023-02-07T00:23:58;-2.30;99.90
51867;DHT22;52862;52.504;13.480;2023-02-07T00:26:26;-2.50;99.90
51867;DHT22;52862;52.504;13.480;2023-02-07T00:28:54;-2.30;99.90
51867;DHT22;52862;52.504;13.480;2023-02-07T00:31:23;-2.30;99.90
51867;DHT22;52862;52.504;13.480;2023-02-07T00:33:51;-2.30;99.90
51867;DHT22;52862;52.504;13.480;2023-02-07T00:36:21;-2.50;99.90
51867;DHT22;52862;52.504;13.480;2023-02-07T00:38:48;-2.50;99.90
51867;DHT22;52862;52.504;13.480;2023-02-07T00:41:16;-3.10;99.90
51867;DHT22;52862;52.504;13.480;2023-02-07T00:43:45;-2.80;99.90
51867;DHT22;52862;52.504;13.480;2023-02-07T00:46:12;-2.50;99.90
51867;DHT22;52862;52.504;13.480;2023-02-07T00:48:39;-2.50;99.90
51867;DHT22;52862;52.504;13.480;2023-02-07T00:51:06;-2.40;99.90
51867;DHT22;52862;52.504;13.480;2023-02-07T01:00:54;-2.50;99.90
51867;DHT22;52862;52.504;13.480;2023-02-07T01:03:21;-2.50;99.90
51867;DHT22;52862;52.504;13.480;2023-02-07T01:05:48;-2.40;99.90
51867;DHT22;52862;52.504;13.480;2023-02-07T01:08:15;-3.20;99.90
51867;DHT22;52862;52.504;13.480;2023-02-07T01:10:43;-2.70;99.90
51867;DHT22;52862;52.504;13.480;2023-02-07T01:13:11;-3.60;99.90
51867;DHT22;52862;52.504;13.480;2023-02-07T01:15:41;-1.70;99.90
51867;DHT22;52862;52.504;13.480;2023-02-07T01:18:08;-2.90;99.90
51867;DHT22;52862;52.504;13.480;2023-02-07T01:20:36;-2.60;99.90
51867;DHT22;52862;52.504;13.480;2023-02-07T01:23:04;-2.90;99.90
51867;DHT22;52862;52.504;13.480;2023-02-07T01:25:31;-2.80;99.90
51867;DHT22;52862;52.504;13.480;2023-02-07T01:27:58;-2.50;99.90
51867;DHT22;52862;52.504;13.480;2023-02-07T01:32:51;-2.70;99.90
51867;DHT22;52862;52.504;13.480;2023-02-07T01:35:18;-2.80;99.90
51867;DHT22;52862;52.504;13.480;2023-02-07T01:37:46;-2.60;99.90
51867;DHT22;52862;52.504;13.480;2023-02-07T01:40:12;-2.90;99.90
51867;DHT22;52862;52.504;13.480;2023-02-07T01:45:19;-3.20;99.90
51867;DHT22;52862;52.504;13.480;2023-02-07T01:47:48;-2.70;99.90
51867;DHT22;52862;52.504;13.480;2023-02-07T01:52:42;-2.80;99.90
51867;DHT22;52862;52.504;13.480;2023-02-07T01:55:14;-3.00;99.90
51867;DHT22;52862;52.504;13.480;2023-02-07T01:57:43;-2.80;99.90
51867;DHT22;52862;52.504;13.480;2023-02-07T02:00:14;-2.90;99.90
51867;DHT22;52862;52.504;13.480;2023-02-07T02:05:10;-2.70;99.90
51867;DHT22;52862;52.504;13.480;2023-02-07T02:07:39;-2.80;99.90
51867;DHT22;52862;52.504;13.480;2023-02-07T02:10:09;-3.00;99.90
51867;DHT22;52862;52.504;13.480;2023-02-07T02:12:52;-2.80;99.90
51867;DHT22;52862;52.504;13.480;2023-02-07T02:15:29;-2.80;99.90
51867;DHT22;52862;52.504;13.480;2023-02-07T02:18:17;-3.00;99.90
51867;DHT22;52862;52.504;13.480;2023-02-07T02:24:06;-2.90;99.90
51867;DHT22;52862;52.504;13.480;2023-02-07T02:26:57;-2.80;99.90
51867;DHT22;52862;52.504;13.480;2023-02-07T02:29:57;-2.60;99.90
51867;DHT22;52862;52.504;13.480;2023-02-07T02:35:29;-3.20;99.90
51867;DHT22;52862;52.504;13.480;2023-02-07T02:38:03;-3.00;99.90
51867;DHT22;52862;52.504;13.480;2023-02-07T02:40:41;-3.10;99.90
51867;DHT22;52862;52.504;13.480;2023-02-07T02:43:16;-3.00;99.90
51867;DHT22;52862;52.504;13.480;2023-02-07T02:45:48;-3.40;99.90
51867;DHT22;52862;52.504;13.480;2023-02-07T02:59:06;-2.90;99.90
51867;DHT22;52862;52.504;13.480;2023-02-07T03:01:41;-3.50;99.90
51867;DHT22;52862;52.504;13.480;2023-02-07T03:04:31;-3.00;99.90
51867;DHT22;52862;52.504;13.480;2023-02-07T03:07:14;-2.90;99.90
51867;DHT22;52862;52.504;13.480;2023-02-07T03:09:48;-3.10;99.90
51867;DHT22;52862;52.504;13.480;2023-02-07T03:12:23;-3.10;99.90
51867;DHT22;52862;52.504;13.480;2023-02-07T03:14:55;-3.10;99.90
51867;DHT22;52862;52.504;13.480;2023-02-07T03:17:28;-3.20;99.90
51867;DHT22;52862;52.504;13.480;2023-02-07T03:20:01;-3.00;99.90
51867;DHT22;52862;52.504;13.480;2023-02-07T03:24:58;-3.40;99.90
51867;DHT22;52862;52.504;13.480;2023-02-07T03:27:28;-3.30;99.90
51867;DHT22;52862;52.504;13.480;2023-02-07T03:29:58;-3.10;99.90
51867;DHT22;52862;52.504;13.480;2023-02-07T03:32:28;-0.60;99.90
51867;DHT22;52862;52.504;13.480;2023-02-07T03:34:59;-3.40;99.90
51867;DHT22;52862;52.504;13.480;2023-02-07T03:37:28;-3.40;99.90
51867;DHT22;52862;52.504;13.480;2023-02-07T03:39:57;-3.60;99.90
51867;DHT22;52862;52.504;13.480;2023-02-07T03:42:29;-3.40;99.90
51867;DHT22;52862;52.504;13.480;2023-02-07T03:44:58;-3.50;99.90
51867;DHT22;52862;52.504;13.480;2023-02-07T03:47:26;-3.50;99.90
51867;DHT22;52862;52.504;13.480;2023-02-07T03:59:42;-3.70;99.90
51867;DHT22;52862;52.504;13.480;2023-02-07T04:02:09;-3.40;99.90
51867;DHT22;52862;52.504;13.480;2023-02-07T04:04:36;-3.60;99.90
51867;DHT22;52862;52.504;13.480;2023-02-07T04:07:03;-3.60;99.90
51867;DHT22;52862;52.504;13.480;2023-02-07T04:09:30;-3.50;99.90
51867;DHT22;52862;52.504;13.480;2023-02-07T04:16:51;-3.50;99.90
51867;DHT22;52862;52.504;13.480;2023-02-07T04:19:18;-3.70;99.90
51867;DHT22;52862;52.504;13.480;2023-02-07T04:21:44;-3.30;99.90
51867;DHT22;52862;52.504;13.480;2023-02-07T04:24:11;-3.50;99.90
51867;DHT22;52862;52.504;13.480;2023-02-07T04:26:38;-3.60;99.90
51867;DHT22;52862;52.504;13.480;2023-02-07T04:31:32;-3.10;99.90
51867;DHT22;52862;52.504;13.480;2023-02-07T04:33:59;-3.60;99.90
51867;DHT22;52862;52.504;13.480;2023-02-07T04:38:54;-3.60;99.90
51867;DHT22;52862;52.504;13.480;2023-02-07T04:41:21;-3.80;99.90
51867;DHT22;52862;52.504;13.480;2023-02-07T04:43:48;-3.80;99.90
51867;DHT22;52862;52.504;13.480;2023-02-07T04:46:15;-3.70;99.90
51867;DHT22;52862;52.504;13.480;2023-02-07T04:51:09;-3.60;99.90
51867;DHT22;52862;52.504;13.480;2023-02-07T04:56:04;-3.50;99.90
51867;DHT22;52862;52.504;13.480;2023-02-07T05:00:58;-3.60;99.90
51867;DHT22;52862;52.504;13.480;2023-02-07T05:03:25;-3.80;99.90
51867;DHT22;52862;52.504;13.480;2023-02-07T05:05:52;-3.70;99.90
51867;DHT22;52862;52.504;13.480;2023-02-07T05:08:20;-3.80;99.90
51867;DHT22;52862;52.504;13.480;2023-02-07T05:10:51;-3.50;99.90
51867;DHT22;52862;52.504;13.480;2023-02-07T05:15:45;-3.20;99.90
51867;DHT22;52862;52.504;13.480;2023-02-07T05:20:39;-3.80;99.90
51867;DHT22;52862;52.504;13.480;2023-02-07T05:25:33;-4.50;99.90
51867;DHT22;52862;52.504;13.480;2023-02-07T05:28:00;-3.60;99.90
51867;DHT22;52862;52.504;13.480;2023-02-07T05:35:35;-4.00;99.90
51867;DHT22;52862;52.504;13.480;2023-02-07T05:43:02;-3.80;99.90
51867;DHT22;52862;52.504;13.480;2023-02-07T06:00:15;-3.90;99.90
51867;DHT22;52862;52.504;13.480;2023-02-07T06:05:12;-3.90;99.90
51867;DHT22;52862;52.504;13.480;2023-02-07T06:10:09;-4.00;99.90
51867;DHT22;52862;52.504;13.480;2023-02-07T06:15:04;-3.90;99.90
51867;DHT22;52862;52.504;13.480;2023-02-07T06:17:31;-4.20;99.90
51867;DHT22;52862;52.504;13.480;2023-02-07T06:22:25;-4.00;99.90
51867;DHT22;52862;52.504;13.480;2023-02-07T06:29:46;-3.60;99.90
51867;DHT22;52862;52.504;13.480;2023-02-07T06:34:40;-3.90;99.90
51867;DHT22;52862;52.504;13.480;2023-02-07T06:37:07;-4.00;99.90
51867;DHT22;52862;52.504;13.480;2023-02-07T06:42:01;-4.70;99.90
51867;DHT22;52862;52.504;13.480;2023-02-07T06:51:49;-4.00;99.90
51867;DHT22;52862;52.504;13.480;2023-02-07T06:59:09;-3.40;99.90
51867;DHT22;52862;52.504;13.480;2023-02-07T07:08:59;-3.50;99.90
51867;DHT22;52862;52.504;13.480;2023-02-07T07:13:53;-3.70;99.90
51867;DHT22;52862;52.504;13.480;2023-02-07T07:16:19;-2.70;99.90
51867;DHT22;52862;52.504;13.480;2023-02-07T07:26:08;-3.10;99.90
51867;DHT22;52862;52.504;13.480;2023-02-07T07:28:34;-3.50;99.90
51867;DHT22;52862;52.504;13.480;2023-02-07T07:31:03;-2.70;99.90
51867;DHT22;52862;52.504;13.480;2023-02-07T07:35:57;-3.20;99.90
51867;DHT22;52862;52.504;13.480;2023-02-07T07:40:50;-3.10;99.90
51867;DHT22;52862;52.504;13.480;2023-02-07T07:43:18;-3.20;99.90
51867;DHT22;52862;52.504;13.480;2023-02-07T07:48:12;-2.70;99.90
51867;DHT22;52862;52.504;13.480;2023-02-07T07:53:07;-2.60;99.90
51867;DHT22;52862;52.504;13.480;2023-02-07T07:58:00;-2.50;99.90
51867;DHT22;52862;52.504;13.480;2023-02-07T08:00:28;-2.50;99.90
51867;DHT22;52862;52.504;13.480;2023-02-07T08:02:55;-2.50;99.90
51867;DHT22;52862;52.504;13.480;2023-02-07T08:05:22;-2.70;99.90
51867;DHT22;52862;52.504;13.480;2023-02-07T08:07:49;-2.10;99.90
51867;DHT22;52862;52.504;13.480;2023-02-07T08:10:16;-2.10;99.90
51867;DHT22;52862;52.504;13.480;2023-02-07T08:12:43;-2.50;99.90
51867;DHT22;52862;52.504;13.480;2023-02-07T08:15:10;-2.20;99.90
51867;DHT22;52862;52.504;13.480;2023-02-07T08:17:39;-2.00;99.90
51867;DHT22;52862;52.504;13.480;2023-02-07T08:20:07;-1.90;99.90
51867;DHT22;52862;52.504;13.480;2023-02-07T08:22:34;-1.80;99.90
51867;DHT22;52862;52.504;13.480;2023-02-07T08:27:28;-2.10;99.90
51867;DHT22;52862;52.504;13.480;2023-02-07T08:34:49;-0.90;99.90
51867;DHT22;52862;52.504;13.480;2023-02-07T08:37:16;-1.00;99.90
51867;DHT22;52862;52.504;13.480;2023-02-07T08:42:10;-0.80;99.90
51867;DHT22;52862;52.504;13.480;2023-02-07T08:44:37;-0.80;99.90
51867;DHT22;52862;52.504;13.480;2023-02-07T08:47:04;-0.70;99.90
51867;DHT22;52862;52.504;13.480;2023-02-07T08:51:58;-0.60;99.90
51867;DHT22;52862;52.504;13.480;2023-02-07T08:54:25;-0.40;99.90
51867;DHT22;52862;52.504;13.480;2023-02-07T08:56:52;-0.80;99.90
51867;DHT22;52862;52.504;13.480;2023-02-07T08:59:18;-0.70;99.90
51867;DHT22;52862;52.504;13.480;2023-02-07T09:01:45;-0.30;99.90
51867;DHT22;52862;52.504;13.480;2023-02-07T09:04:12;0.10;99.90
51867;DHT22;52862;52.504;13.480;2023-02-07T09:06:38;-0.30;99.90
51867;DHT22;52862;52.504;13.480;2023-02-07T09:09:06;0.20;99.90
51867;DHT22;52862;52.504;13.480;2023-02-07T09:11:33;0.20;99.90
51867;DHT22;52862;52.504;13.480;2023-02-07T09:14:00;0.20;99.90
51867;DHT22;52862;52.504;13.480;2023-02-07T09:21:22;0.60;99.90
51867;DHT22;52862;52.504;13.480;2023-02-07T09:26:18;0.90;99.90
51867;DHT22;52862;52.504;13.480;2023-02-07T09:28:45;1.20;99.90
51867;DHT22;52862;52.504;13.480;2023-02-07T09:31:14;1.20;99.90
51867;DHT22;52862;52.504;13.480;2023-02-07T09:33:41;1.00;99.90
51867;DHT22;52862;52.504;13.480;2023-02-07T09:36:17;1.60;99.90
51867;DHT22;52862;52.504;13.480;2023-02-07T09:38:46;1.80;99.90
51867;DHT22;52862;52.504;13.480;2023-02-07T09:41:19;1.00;99.90
51867;DHT22;52862;52.504;13.480;2023-02-07T09:43:55;1.60;99.90
51867;DHT22;52862;52.504;13.480;2023-02-07T09:46:29;1.30;99.90
51867;DHT22;52862;52.504;13.480;2023-02-07T09:49:03;1.30;99.90
51867;DHT22;52862;52.504;13.480;2023-02-07T09:51:33;1.40;99.90
51867;DHT22;52862;52.504;13.480;2023-02-07T09:54:02;1.00;99.90
51867;DHT22;52862;52.504;13.480;2023-02-07T09:56:31;1.70;99.90
51867;DHT22;52862;52.504;13.480;2023-02-07T09:59:02;1.40;99.90
51867;DHT22;52862;52.504;13.480;2023-02-07T10:01:34;2.00;99.90
51867;DHT22;52862;52.504;13.480;2023-02-07T10:04:12;1.70;99.90
51867;DHT22;52862;52.504;13.480;2023-02-07T10:06:44;2.00;99.90
51867;DHT22;52862;52.504;13.480;2023-02-07T10:09:15;2.00;99.90
51867;DHT22;52862;52.504;13.480;2023-02-07T10:11:46;2.40;99.90
51867;DHT22;52862;52.504;13.480;2023-02-07T10:14:26;2.40;99.90
51867;DHT22;52862;52.504;13.480;2023-02-07T10:17:04;2.40;99.90
51867;DHT22;52862;52.504;13.480;2023-02-07T10:19:50;2.50;99.90
51867;DHT22;52862;52.504;13.480;2023-02-07T10:22:26;2.30;99.90
51867;DHT22;52862;52.504;13.480;2023-02-07T10:25:09;1.60;99.90
51867;DHT22;52862;52.504;13.480;2023-02-07T10:27:49;2.50;99.90
51867;DHT22;52862;52.504;13.480;2023-02-07T10:30:23;2.60;99.90
51867;DHT22;52862;52.504;13.480;2023-02-07T10:32:52;2.90;99.90
51867;DHT22;52862;52.504;13.480;2023-02-07T10:35:20;2.80;99.90
51867;DHT22;52862;52.504;13.480;2023-02-07T10:37:50;2.80;99.90
51867;DHT22;52862;52.504;13.480;2023-02-07T10:40:23;3.00;99.90
51867;DHT22;52862;52.504;13.480;2023-02-07T10:42:57;3.20;99.90
51867;DHT22;52862;52.504;13.480;2023-02-07T10:45:24;2.80;99.90
51867;DHT22;52862;52.504;13.480;2023-02-07T10:47:51;3.20;99.90
51867;DHT22;52862;52.504;13.480;2023-02-07T10:50:22;3.10;99.90
51867;DHT22;52862;52.504;13.480;2023-02-07T10:52:57;2.70;99.90
51867;DHT22;52862;52.504;13.480;2023-02-07T10:55:42;1.90;99.90
51867;DHT22;52862;52.504;13.480;2023-02-07T10:58:15;2.10;99.90
51867;DHT22;52862;52.504;13.480;2023-02-07T11:00:50;1.80;99.90
51867;DHT22;52862;52.504;13.480;2023-02-07T11:03:18;1.80;99.90
51867;DHT22;52862;52.504;13.480;2023-02-07T11:05:55;1.70;99.90
51867;DHT22;52862;52.504;13.480;2023-02-07T11:08:25;2.00;99.90
51867;DHT22;52862;52.504;13.480;2023-02-07T11:10:54;1.70;99.90
51867;DHT22;52862;52.504;13.480;2023-02-07T11:13:23;1.50;99.90
51867;DHT22;52862;52.504;13.480;2023-02-07T11:15:56;1.90;99.90
51867;DHT22;52862;52.504;13.480;2023-02-07T11:18:39;2.00;99.90
51867;DHT22;52862;52.504;13.480;2023-02-07T11:21:28;1.70;99.90
51867;DHT22;52862;52.504;13.480;2023-02-07T11:23:59;2.50;99.90
51867;DHT22;52862;52.504;13.480;2023-02-07T11:26:26;2.30;99.90
51867;DHT22;52862;52.504;13.480;2023-02-07T11:29:02;2.50;99.90
51867;DHT22;52862;52.504;13.480;2023-02-07T11:31:34;2.80;99.90
51867;DHT22;52862;52.504;13.480;2023-02-07T11:34:25;2.10;99.90
51867;DHT22;52862;52.504;13.480;2023-02-07T11:36:53;2.90;99.90
51867;DHT22;52862;52.504;13.480;2023-02-07T11:39:21;3.20;99.90
51867;DHT22;52862;52.504;13.480;2023-02-07T11:41:58;3.20;99.90
51867;DHT22;52862;52.504;13.480;2023-02-07T11:44:27;3.10;99.90
51867;DHT22;52862;52.504;13.480;2023-02-07T11:46:58;3.80;99.90
51867;DHT22;52862;52.504;13.480;2023-02-07T11:49:38;3.30;99.90
51867;DHT22;52862;52.504;13.480;2023-02-07T11:52:07;2.70;99.90
51867;DHT22;52862;52.504;13.480;2023-02-07T11:54:34;2.40;99.90
51867;DHT22;52862;52.504;13.480;2023-02-07T11:57:04;2.50;99.90
51867;DHT22;52862;52.504;13.480;2023-02-07T11:59:32;2.40;99.90
51867;DHT22;52862;52.504;13.480;2023-02-07T12:02:12;3.10;99.90
51867;DHT22;52862;52.504;13.480;2023-02-07T12:04:41;2.30;99.90
51867;DHT22;52862;52.504;13.480;2023-02-07T12:07:12;2.70;99.90
51867;DHT22;52862;52.504;13.480;2023-02-07T12:09:44;2.70;99.90
51867;DHT22;52862;52.504;13.480;2023-02-07T12:12:17;2.80;99.90
51867;DHT22;52862;52.504;13.480;2023-02-07T12:14:50;2.60;99.90
51867;DHT22;52862;52.504;13.480;2023-02-07T12:17:22;2.70;99.90
51867;DHT22;52862;52.504;13.480;2023-02-07T12:19:53;2.40;99.90
51867;DHT22;52862;52.504;13.480;2023-02-07T12:22:24;3.00;99.90
51867;DHT22;52862;52.504;13.480;2023-02-07T12:24:56;3.20;99.90
51867;DHT22;52862;52.504;13.480;2023-02-07T12:27:29;2.50;99.90
51867;DHT22;52862;52.504;13.480;2023-02-07T12:30:02;3.00;99.90
51867;DHT22;52862;52.504;13.480;2023-02-07T12:32:36;3.50;99.90
51867;DHT22;52862;52.504;13.480;2023-02-07T12:35:15;3.60;99.90
51867;DHT22;52862;52.504;13.480;2023-02-07T12:37:48;2.40;99.90
51867;DHT22;52862;52.504;13.480;2023-02-07T12:40:24;3.30;99.90
51867;DHT22;52862;52.504;13.480;2023-02-07T12:42:54;3.20;99.90
51867;DHT22;52862;52.504;13.480;2023-02-07T12:45:35;3.30;99.90
51867;DHT22;52862;52.504;13.480;2023-02-07T12:48:12;2.90;99.90
51867;DHT22;52862;52.504;13.480;2023-02-07T12:50:54;2.90;99.90
51867;DHT22;52862;52.504;13.480;2023-02-07T12:53:38;2.80;99.90
51867;DHT22;52862;52.504;13.480;2023-02-07T12:56:21;2.70;99.90
51867;DHT22;52862;52.504;13.480;2023-02-07T12:58:54;2.90;99.90
51867;DHT22;52862;52.504;13.480;2023-02-07T13:01:33;3.00;99.90
51867;DHT22;52862;52.504;13.480;2023-02-07T13:04:21;7.40;99.90
51867;DHT22;52862;52.504;13.480;2023-02-07T13:06:59;8.80;99.90
51867;DHT22;52862;52.504;13.480;2023-02-07T13:09:33;13.60;91.70
51867;DHT22;52862;52.504;13.480;2023-02-07T13:12:07;13.60;81.90
51867;DHT22;52862;52.504;13.480;2023-02-07T13:14:55;13.30;81.50
51867;DHT22;52862;52.504;13.480;2023-02-07T13:17:37;16.20;71.80
51867;DHT22;52862;52.504;13.480;2023-02-07T13:20:19;14.40;69.10
51867;DHT22;52862;52.504;13.480;2023-02-07T13:22:51;13.70;70.80
51867;DHT22;52862;52.504;13.480;2023-02-07T13:25:22;12.70;72.10
51867;DHT22;52862;52.504;13.480;2023-02-07T13:27:51;11.30;73.30
51867;DHT22;52862;52.504;13.480;2023-02-07T13:30:20;14.20;68.90
51867;DHT22;52862;52.504;13.480;2023-02-07T13:32:48;17.10;62.80
51867;DHT22;52862;52.504;13.480;2023-02-07T13:35:19;19.00;58.20
51867;DHT22;52862;52.504;13.480;2023-02-07T13:37:50;20.10;53.60
51867;DHT22;52862;52.504;13.480;2023-02-07T13:40:27;19.50;52.20
51867;DHT22;52862;52.504;13.480;2023-02-07T13:43:01;19.10;50.40
51867;DHT22;52862;52.504;13.480;2023-02-07T13:45:38;19.80;49.00
51867;DHT22;52862;52.504;13.480;2023-02-07T13:48:15;20.40;49.40
51867;DHT22;52862;52.504;13.480;2023-02-07T13:50:49;20.70;51.20
51867;DHT22;52862;52.504;13.480;2023-02-07T13:53:39;18.40;51.80
51867;DHT22;52862;52.504;13.480;2023-02-07T13:56:08;16.90;52.10
51867;DHT22;52862;52.504;13.480;2023-02-07T13:58:55;15.80;53.60
51867;DHT22;52862;52.504;13.480;2023-02-07T14:01:50;14.80;55.70
51867;DHT22;52862;52.504;13.480;2023-02-07T14:04:19;13.30;59.20
51867;DHT22;52862;52.504;13.480;2023-02-07T14:06:59;13.80;59.10
51867;DHT22;52862;52.504;13.480;2023-02-07T14:09:32;14.20;58.40
51867;DHT22;52862;52.504;13.480;2023-02-07T14:12:02;16.80;55.20
51867;DHT22;52862;52.504;13.480;2023-02-07T14:14:31;17.50;51.80
51867;DHT22;52862;52.504;13.480;2023-02-07T14:17:00;17.30;51.70
51867;DHT22;52862;52.504;13.480;2023-02-07T14:19:47;16.70;52.40
51867;DHT22;52862;52.504;13.480;2023-02-07T14:22:16;16.00;54.20
51867;DHT22;52862;52.504;13.480;2023-02-07T14:27:31;10.50;63.60
51867;DHT22;52862;52.504;13.480;2023-02-07T14:30:26;8.10;71.80
51867;DHT22;52862;52.504;13.480;2023-02-07T14:33:11;6.60;76.60
51867;DHT22;52862;52.504;13.480;2023-02-07T14:38:31;4.80;86.20
51867;DHT22;52862;52.504;13.480;2023-02-07T14:41:03;4.90;90.80
51867;DHT22;52862;52.504;13.480;2023-02-07T14:43:43;4.60;91.50
51867;DHT22;52862;52.504;13.480;2023-02-07T14:46:26;3.60;92.90
51867;DHT22;52862;52.504;13.480;2023-02-07T14:49:00;4.00;99.90
51867;DHT22;52862;52.504;13.480;2023-02-07T14:51:37;3.90;99.90
51867;DHT22;52862;52.504;13.480;2023-02-07T14:54:07;1.90;99.90
51867;DHT22;52862;52.504;13.480;2023-02-07T14:56:44;4.20;97.80
51867;DHT22;52862;52.504;13.480;2023-02-07T14:59:17;3.70;99.00
51867;DHT22;52862;52.504;13.480;2023-02-07T15:04:11;2.70;99.90
51867;DHT22;52862;52.504;13.480;2023-02-07T15:06:41;3.30;99.90
51867;DHT22;52862;52.504;13.480;2023-02-07T15:09:23;2.90;99.90
51867;DHT22;52862;52.504;13.480;2023-02-07T15:11:50;3.70;99.90
51867;DHT22;52862;52.504;13.480;2023-02-07T15:14:31;3.00;99.90
51867;DHT22;52862;52.504;13.480;2023-02-07T15:16:59;2.90;99.90
51867;DHT22;52862;52.504;13.480;2023-02-07T15:19:32;2.70;99.90
51867;DHT22;52862;52.504;13.480;2023-02-07T15:22:01;2.80;99.90
51867;DHT22;52862;52.504;13.480;2023-02-07T15:24:30;2.90;99.90
51867;DHT22;52862;52.504;13.480;2023-02-07T15:27:20;3.00;99.90
51867;DHT22;52862;52.504;13.480;2023-02-07T15:29:53;2.80;99.90
51867;DHT22;52862;52.504;13.480;2023-02-07T15:32:22;2.80;99.90
51867;DHT22;52862;52.504;13.480;2023-02-07T15:34:50;2.60;99.90
51867;DHT22;52862;52.504;13.480;2023-02-07T15:37:20;2.60;99.90
51867;DHT22;52862;52.504;13.480;2023-02-07T15:39:51;2.20;99.90
51867;DHT22;52862;52.504;13.480;2023-02-07T15:42:19;2.50;99.90
51867;DHT22;52862;52.504;13.480;2023-02-07T15:44:47;2.50;99.90
51867;DHT22;52862;52.504;13.480;2023-02-07T15:47:30;2.40;99.90
51867;DHT22;52862;52.504;13.480;2023-02-07T15:49:58;3.00;99.90
51867;DHT22;52862;52.504;13.480;2023-02-07T15:52:29;2.20;99.90
51867;DHT22;52862;52.504;13.480;2023-02-07T15:54:59;2.10;99.90
51867;DHT22;52862;52.504;13.480;2023-02-07T15:57:29;2.00;99.90
51867;DHT22;52862;52.504;13.480;2023-02-07T16:00:01;2.10;99.90
51867;DHT22;52862;52.504;13.480;2023-02-07T16:02:30;2.10;99.90
51867;DHT22;52862;52.504;13.480;2023-02-07T16:04:58;1.50;99.90
51867;DHT22;52862;52.504;13.480;2023-02-07T16:07:25;2.40;99.90
51867;DHT22;52862;52.504;13.480;2023-02-07T16:09:53;2.20;99.90
51867;DHT22;52862;52.504;13.480;2023-02-07T16:12:32;2.30;99.90
51867;DHT22;52862;52.504;13.480;2023-02-07T16:15:00;2.10;99.90
51867;DHT22;52862;52.504;13.480;2023-02-07T16:17:37;1.60;99.90
51867;DHT22;52862;52.504;13.480;2023-02-07T16:20:05;1.60;99.90
51867;DHT22;52862;52.504;13.480;2023-02-07T16:22:32;1.80;99.90
51867;DHT22;52862;52.504;13.480;2023-02-07T16:25:00;0.90;99.90
51867;DHT22;52862;52.504;13.480;2023-02-07T16:27:28;1.50;99.90
51867;DHT22;52862;52.504;13.480;2023-02-07T16:29:57;1.50;99.90
51867;DHT22;52862;52.504;13.480;2023-02-07T16:32:27;1.40;99.90
51867;DHT22;52862;52.504;13.480;2023-02-07T16:37:26;1.00;99.90
51867;DHT22;52862;52.504;13.480;2023-02-07T16:39:53;1.50;99.90
51867;DHT22;52862;52.504;13.480;2023-02-07T16:42:20;1.30;99.90
51867;DHT22;52862;52.504;13.480;2023-02-07T16:44:47;1.40;99.90
51867;DHT22;52862;52.504;13.480;2023-02-07T16:47:14;1.00;99.90
51867;DHT22;52862;52.504;13.480;2023-02-07T16:49:42;1.00;99.90
51867;DHT22;52862;52.504;13.480;2023-02-07T16:52:09;1.10;99.90
51867;DHT22;52862;52.504;13.480;2023-02-07T16:54:36;1.10;99.90
51867;DHT22;52862;52.504;13.480;2023-02-07T16:57:03;1.00;99.90
51867;DHT22;52862;52.504;13.480;2023-02-07T16:59:30;1.00;99.90
51867;DHT22;52862;52.504;13.480;2023-02-07T17:01:57;0.80;99.90
51867;DHT22;52862;52.504;13.480;2023-02-07T17:06:51;0.60;99.90
51867;DHT22;52862;52.504;13.480;2023-02-07T17:09:20;0.80;99.90
51867;DHT22;52862;52.504;13.480;2023-02-07T17:11:47;0.90;99.90
51867;DHT22;52862;52.504;13.480;2023-02-07T17:16:41;0.80;99.90
51867;DHT22;52862;52.504;13.480;2023-02-07T17:19:12;0.70;99.90
51867;DHT22;52862;52.504;13.480;2023-02-07T17:21:40;0.90;99.90
51867;DHT22;52862;52.504;13.480;2023-02-07T17:24:08;0.60;99.90
51867;DHT22;52862;52.504;13.480;2023-02-07T17:26:35;1.00;99.90
51867;DHT22;52862;52.504;13.480;2023-02-07T17:29:04;0.90;99.90
51867;DHT22;52862;52.504;13.480;2023-02-07T17:31:31;1.20;99.90
51867;DHT22;52862;52.504;13.480;2023-02-07T17:33:58;0.70;99.90
51867;DHT22;52862;52.504;13.480;2023-02-07T17:36:25;0.30;99.90
51867;DHT22;52862;52.504;13.480;2023-02-07T17:38:53;1.00;99.90
51867;DHT22;52862;52.504;13.480;2023-02-07T17:41:22;0.90;99.90
51867;DHT22;52862;52.504;13.480;2023-02-07T17:46:17;0.80;99.90
51867;DHT22;52862;52.504;13.480;2023-02-07T17:48:46;0.80;99.90
51867;DHT22;52862;52.504;13.480;2023-02-07T17:51:13;0.90;99.90
51867;DHT22;52862;52.504;13.480;2023-02-07T17:53:40;0.90;99.90
51867;DHT22;52862;52.504;13.480;2023-02-07T17:56:08;0.60;99.90
51867;DHT22;52862;52.504;13.480;2023-02-07T17:58:35;0.70;99.90
51867;DHT22;52862;52.504;13.480;2023-02-07T18:01:03;0.60;99.90
51867;DHT22;52862;52.504;13.480;2023-02-07T18:03:30;1.50;99.90
51867;DHT22;52862;52.504;13.480;2023-02-07T18:08:25;0.80;99.90
51867;DHT22;52862;52.504;13.480;2023-02-07T18:10:52;0.60;99.90
51867;DHT22;52862;52.504;13.480;2023-02-07T18:13:18;0.80;99.90
51867;DHT22;52862;52.504;13.480;2023-02-07T18:18:13;1.10;99.90
51867;DHT22;52862;52.504;13.480;2023-02-07T18:20:41;0.70;99.90
51867;DHT22;52862;52.504;13.480;2023-02-07T18:23:09;0.80;99.90
51867;DHT22;52862;52.504;13.480;2023-02-07T18:25:39;0.40;99.90
51867;DHT22;52862;52.504;13.480;2023-02-07T18:30:33;0.40;99.90
51867;DHT22;52862;52.504;13.480;2023-02-07T18:33:00;0.50;99.90
51867;DHT22;52862;52.504;13.480;2023-02-07T18:35:26;0.20;99.90
51867;DHT22;52862;52.504;13.480;2023-02-07T18:37:53;0.40;99.90
51867;DHT22;52862;52.504;13.480;2023-02-07T18:40:20;0.50;99.90
51867;DHT22;52862;52.504;13.480;2023-02-07T18:42:48;0.60;99.90
51867;DHT22;52862;52.504;13.480;2023-02-07T18:45:15;0.70;99.90
51867;DHT22;52862;52.504;13.480;2023-02-07T18:47:42;0.40;99.90
51867;DHT22;52862;52.504;13.480;2023-02-07T18:50:09;0.00;99.90
51867;DHT22;52862;52.504;13.480;2023-02-07T18:52:37;-0.50;99.90
51867;DHT22;52862;52.504;13.480;2023-02-07T18:55:04;0.00;99.90
51867;DHT22;52862;52.504;13.480;2023-02-07T18:57:31;0.20;99.90
51867;DHT22;52862;52.504;13.480;2023-02-07T18:59:58;0.40;99.90
51867;DHT22;52862;52.504;13.480;2023-02-07T19:02:25;0.10;99.90
51867;DHT22;52862;52.504;13.480;2023-02-07T19:07:19;-0.10;99.90
51867;DHT22;52862;52.504;13.480;2023-02-07T19:09:46;-0.10;99.90
51867;DHT22;52862;52.504;13.480;2023-02-07T19:12:12;-0.60;99.90